createdAt,value
2023-02-18T00:01:08.032Z,56.17
2023-02-18T00:03:34.745Z,55.35
2023-02-18T00:06:01.477Z,55.22
2023-02-18T00:08:28.113Z,56.91
2023-02-18T00:10:54.759Z,55.73
2023-02-18T00:13:21.368Z,55.79
2023-02-18T00:15:48.049Z,56.73
2023-02-18T00:18:14.783Z,55.68
2023-02-18T00:20:41.481Z,55.91
2023-02-18T00:23:08.108Z,56.62
2023-02-18T00:25:34.782Z,56.65
2023-02-18T00:28:01.428Z,56.96
2023-02-18T00:30:28.138Z,58.13
2023-02-18T00:32:54.867Z,58.94
2023-02-18T00:35:21.489Z,59.86
2023-02-18T00:37:48.158Z,58.34
2023-02-18T00:40:14.799Z,57.70
2023-02-18T00:42:41.475Z,57.96
2023-02-18T00:45:08.117Z,57.13
2023-02-18T00:47:34.738Z,57.23
2023-02-18T00:50:01.404Z,56.26
2023-02-18T00:52:28.081Z,56.22
2023-02-18T00:54:54.735Z,56.33
2023-02-18T00:57:21.441Z,56.48
2023-02-18T00:59:48.077Z,56.47
2023-02-18T01:02:14.703Z,56.20
2023-02-18T01:04:41.458Z,56.06
2023-02-18T01:07:08.133Z,56.13
2023-02-18T01:09:34.764Z,55.73
2023-02-18T01:12:01.404Z,55.89
2023-02-18T01:14:28.116Z,55.50
2023-02-18T01:16:54.778Z,55.21
2023-02-18T01:19:21.503Z,55.26
2023-02-18T01:21:48.221Z,55.91
2023-02-18T01:24:14.925Z,56.90
2023-02-18T01:26:41.594Z,57.37
2023-02-18T01:29:08.239Z,57.66
2023-02-18T01:31:35.027Z,57.43
2023-02-18T01:34:01.705Z,56.72
2023-02-18T01:36:28.401Z,57.51
2023-02-18T01:38:55.057Z,57.45
2023-02-18T01:41:21.692Z,57.22
2023-02-18T01:43:48.385Z,56.85
2023-02-18T01:46:15.099Z,56.47
2023-02-18T01:48:41.770Z,56.68
2023-02-18T01:51:08.381Z,56.15
2023-02-18T01:53:35.017Z,56.43
2023-02-18T01:56:01.676Z,56.79
2023-02-18T01:58:28.354Z,57.32
2023-02-18T02:00:55.075Z,57.19
2023-02-18T02:03:21.766Z,57.92
2023-02-18T02:05:48.423Z,57.10
2023-02-18T02:08:15.064Z,56.53
2023-02-18T02:10:41.655Z,56.45
2023-02-18T02:13:08.282Z,56.87
2023-02-18T02:15:34.916Z,56.41
2023-02-18T02:18:01.603Z,57.11
2023-02-18T02:20:28.239Z,57.04
2023-02-18T02:22:54.969Z,58.23
2023-02-18T02:25:21.707Z,59.92
2023-02-18T02:27:48.313Z,58.96
2023-02-18T02:30:15.022Z,57.99
2023-02-18T02:32:41.650Z,57.89
2023-02-18T02:35:08.333Z,58.26
2023-02-18T02:37:35.054Z,57.84
2023-02-18T02:40:01.658Z,57.83
2023-02-18T02:42:28.345Z,58.19
2023-02-18T02:44:54.975Z,58.77
2023-02-18T02:47:21.654Z,58.48
2023-02-18T02:49:48.302Z,58.05
2023-02-18T02:52:14.913Z,58.03
2023-02-18T02:54:41.612Z,57.68
2023-02-18T02:57:08.238Z,57.75
2023-02-18T02:59:34.853Z,58.60
2023-02-18T03:02:01.547Z,58.12
2023-02-18T03:04:28.198Z,59.27
2023-02-18T03:06:54.869Z,58.82
2023-02-18T03:09:21.489Z,60.60
2023-02-18T03:11:48.234Z,59.90
2023-02-18T03:14:14.915Z,59.46
2023-02-18T03:16:41.668Z,58.96
2023-02-18T03:19:08.342Z,58.80
2023-02-18T03:21:34.977Z,58.67
2023-02-18T03:24:01.591Z,58.57
2023-02-18T03:26:28.212Z,58.88
2023-02-18T03:28:54.810Z,58.17
2023-02-18T03:31:21.610Z,59.18
2023-02-18T03:33:48.312Z,58.67
2023-02-18T03:36:15.019Z,58.40
2023-02-18T03:38:41.852Z,58.51
2023-02-18T03:41:08.517Z,57.75
2023-02-18T03:43:35.155Z,58.22
2023-02-18T03:46:01.809Z,58.95
2023-02-18T03:48:28.484Z,58.27
2023-02-18T03:50:55.130Z,58.09
2023-02-18T03:53:21.763Z,57.71
2023-02-18T03:55:48.389Z,57.31
2023-02-18T03:58:15.040Z,57.33
2023-02-18T04:00:41.747Z,57.22
2023-02-18T04:03:08.415Z,57.76
2023-02-18T04:05:35.197Z,58.04
2023-02-18T04:08:01.812Z,57.56
2023-02-18T04:10:28.452Z,57.08
2023-02-18T04:12:55.078Z,57.35
2023-02-18T04:15:21.697Z,57.70
2023-02-18T04:17:48.353Z,58.34
2023-02-18T04:20:15.027Z,58.37
2023-02-18T04:22:41.726Z,58.06
2023-02-18T04:25:08.350Z,58.75
2023-02-18T04:27:34.976Z,58.24
2023-02-18T04:30:01.819Z,58.05
2023-02-18T04:32:28.484Z,58.07
2023-02-18T04:34:55.367Z,57.37
2023-02-18T04:37:22.052Z,57.73
2023-02-18T04:39:48.687Z,57.67
2023-02-18T04:42:15.375Z,57.97
2023-02-18T04:44:42.063Z,57.73
2023-02-18T04:47:08.709Z,57.48
2023-02-18T04:49:35.388Z,58.18
2023-02-18T04:52:02.029Z,58.26
2023-02-18T04:54:28.670Z,57.85
2023-02-18T04:56:55.302Z,57.93
2023-02-18T04:59:22.014Z,57.98
2023-02-18T05:01:48.687Z,58.61
2023-02-18T05:04:15.481Z,58.23
2023-02-18T05:06:42.207Z,58.55
2023-02-18T05:09:08.849Z,57.96
2023-02-18T05:11:35.534Z,57.79
2023-02-18T05:14:02.229Z,57.74
2023-02-18T05:16:28.863Z,58.03
2023-02-18T05:18:55.614Z,58.15
2023-02-18T05:21:22.315Z,57.93
2023-02-18T05:23:48.928Z,58.18
2023-02-18T05:26:15.540Z,58.42
2023-02-18T05:28:42.198Z,58.89
2023-02-18T05:31:08.982Z,58.41
2023-02-18T05:33:35.650Z,59.00
2023-02-18T05:36:02.248Z,58.83
2023-02-18T05:38:28.860Z,58.78
2023-02-18T05:40:55.476Z,58.52
2023-02-18T05:43:22.157Z,58.44
2023-02-18T05:45:48.839Z,58.27
2023-02-18T05:48:15.543Z,57.90
2023-02-18T05:50:42.192Z,58.62
2023-02-18T05:53:08.905Z,59.07
2023-02-18T05:55:35.538Z,58.16
2023-02-18T05:58:02.225Z,58.40
2023-02-18T06:00:28.921Z,58.91
2023-02-18T06:02:55.690Z,59.03
2023-02-18T06:05:22.353Z,59.42
2023-02-18T06:07:49.011Z,59.68
2023-02-18T06:10:15.646Z,59.70
2023-02-18T06:12:42.321Z,59.04
2023-02-18T06:15:08.960Z,58.75
2023-02-18T06:17:35.578Z,58.97
2023-02-18T06:20:02.241Z,58.89
2023-02-18T06:22:28.876Z,58.75
2023-02-18T06:24:55.505Z,59.54
2023-02-18T06:27:22.226Z,59.16
2023-02-18T06:29:48.838Z,59.32
2023-02-18T06:32:15.643Z,58.49
2023-02-18T06:34:42.394Z,58.41
2023-02-18T06:37:09.056Z,59.22
2023-02-18T06:39:35.689Z,59.34
2023-02-18T06:42:02.375Z,58.77
2023-02-18T06:44:28.984Z,58.58
2023-02-18T06:46:55.701Z,59.45
2023-02-18T06:49:22.349Z,59.17
2023-02-18T06:51:49.041Z,59.21
2023-02-18T06:54:15.762Z,59.51
2023-02-18T06:56:42.431Z,59.84
2023-02-18T06:59:09.111Z,60.10
2023-02-18T07:01:35.806Z,59.99
2023-02-18T07:04:02.524Z,59.26
2023-02-18T07:06:29.214Z,59.45
2023-02-18T07:08:55.960Z,58.83
2023-02-18T07:11:22.592Z,58.29
2023-02-18T07:13:49.240Z,58.16
2023-02-18T07:16:15.903Z,58.27
2023-02-18T07:18:42.516Z,58.55
2023-02-18T07:21:09.138Z,58.96
2023-02-18T07:23:35.757Z,58.59
2023-02-18T07:26:02.383Z,58.54
2023-02-18T07:28:29.013Z,58.58
2023-02-18T07:30:55.805Z,58.57
2023-02-18T07:33:22.503Z,58.09
2023-02-18T07:35:49.114Z,58.24
2023-02-18T07:38:15.725Z,58.59
2023-02-18T07:40:42.406Z,58.91
2023-02-18T07:43:09.124Z,59.61
2023-02-18T07:45:35.807Z,59.15
2023-02-18T07:48:02.440Z,58.91
2023-02-18T07:50:29.176Z,58.86
2023-02-18T07:52:55.904Z,58.16
2023-02-18T07:55:22.558Z,57.39
2023-02-18T07:57:49.239Z,57.38
2023-02-18T08:00:15.895Z,57.21
2023-02-18T08:02:42.539Z,57.43
2023-02-18T08:05:09.159Z,57.66
2023-02-18T08:07:35.779Z,58.06
2023-02-18T08:10:02.467Z,58.17
2023-02-18T08:12:29.178Z,57.94
2023-02-18T08:14:55.851Z,57.53
2023-02-18T08:17:22.477Z,56.59
2023-02-18T08:19:49.286Z,56.71
2023-02-18T08:22:15.963Z,56.62
2023-02-18T08:24:42.614Z,56.16
2023-02-18T08:27:09.243Z,56.13
2023-02-18T08:29:35.913Z,55.75
2023-02-18T08:32:02.542Z,55.64
2023-02-18T08:34:29.232Z,54.84
2023-02-18T08:36:55.929Z,54.67
2023-02-18T08:39:22.655Z,54.58
2023-02-18T08:41:49.322Z,53.86
2023-02-18T08:44:15.962Z,53.59
2023-02-18T08:46:42.710Z,53.80
2023-02-18T08:49:09.391Z,54.06
2023-02-18T08:51:36.090Z,53.71
2023-02-18T08:54:02.735Z,53.43
2023-02-18T08:56:29.485Z,53.64
2023-02-18T08:58:56.155Z,53.44
2023-02-18T09:01:22.929Z,53.08
2023-02-18T09:03:49.679Z,52.93
2023-02-18T09:06:16.396Z,52.94
2023-02-18T09:08:43.118Z,52.79
2023-02-18T09:11:10.135Z,52.66
2023-02-18T09:13:36.995Z,53.07
2023-02-18T09:16:03.727Z,52.94
2023-02-18T09:18:30.423Z,52.51
2023-02-18T09:20:57.084Z,52.13
2023-02-18T09:23:23.728Z,52.13
2023-02-18T09:25:50.369Z,51.54
2023-02-18T09:28:17.016Z,51.25
2023-02-18T09:30:43.678Z,51.00
2023-02-18T09:33:10.266Z,50.76
2023-02-18T09:35:37.446Z,50.24
2023-02-18T09:38:04.077Z,49.49
2023-02-18T09:40:30.703Z,49.15
2023-02-18T09:42:57.439Z,49.15
2023-02-18T09:45:24.124Z,48.37
2023-02-18T09:47:50.776Z,48.06
2023-02-18T09:50:17.402Z,47.45
2023-02-18T09:52:44.040Z,47.67
2023-02-18T09:55:10.758Z,48.04
2023-02-18T09:57:37.404Z,47.54
2023-02-18T10:00:04.086Z,46.27
2023-02-18T10:02:30.751Z,46.88
2023-02-18T10:04:57.411Z,47.90
2023-02-18T10:07:24.181Z,47.63
2023-02-18T10:09:50.831Z,46.30
2023-02-18T10:12:17.515Z,44.49
2023-02-18T10:14:44.139Z,44.75
2023-02-18T10:17:10.811Z,43.72
2023-02-18T10:19:37.429Z,42.88
2023-02-18T10:22:04.116Z,42.52
2023-02-18T10:24:30.765Z,41.62
2023-02-18T10:26:57.380Z,43.11
2023-02-18T10:29:24.020Z,41.74
2023-02-18T10:31:50.836Z,41.77
2023-02-18T10:34:17.595Z,41.64
2023-02-18T10:36:44.283Z,40.23
2023-02-18T10:39:10.919Z,40.67
2023-02-18T10:41:37.545Z,39.97
2023-02-18T10:44:04.223Z,39.97
2023-02-18T10:46:30.922Z,39.69
2023-02-18T10:48:57.692Z,39.33
2023-02-18T10:51:24.334Z,38.78
2023-02-18T10:53:50.977Z,38.20
2023-02-18T10:56:17.837Z,39.81
2023-02-18T10:58:44.552Z,39.49
2023-02-18T11:01:11.412Z,38.49
2023-02-18T11:03:38.145Z,37.95
2023-02-18T11:06:04.852Z,36.83
2023-02-18T11:08:31.555Z,39.25
2023-02-18T11:10:58.164Z,38.25
2023-02-18T11:13:24.802Z,38.03
2023-02-18T11:15:51.446Z,37.47
2023-02-18T11:18:18.129Z,36.97
2023-02-18T11:20:44.828Z,37.48
2023-02-18T11:23:11.468Z,36.69
2023-02-18T11:25:38.084Z,35.90
2023-02-18T11:28:04.707Z,37.90
2023-02-18T11:30:31.406Z,35.85
2023-02-18T11:32:58.070Z,36.72
2023-02-18T11:35:24.682Z,35.85
2023-02-18T11:37:51.386Z,36.78
2023-02-18T11:40:18.036Z,35.93
2023-02-18T11:42:44.726Z,36.30
2023-02-18T11:45:11.342Z,35.66
2023-02-18T11:47:37.987Z,36.91
2023-02-18T11:50:04.662Z,36.21
2023-02-18T11:52:31.327Z,36.21
2023-02-18T11:54:58.026Z,36.23
2023-02-18T11:57:24.673Z,36.59
2023-02-18T11:59:51.331Z,38.20
2023-02-18T12:02:18.032Z,38.42
2023-02-18T12:04:44.763Z,37.74
2023-02-18T12:07:11.418Z,37.97
2023-02-18T12:09:38.188Z,37.68
2023-02-18T12:12:04.844Z,38.15
2023-02-18T12:14:31.587Z,37.74
2023-02-18T12:17:00.129Z,38.34
2023-02-18T12:19:26.830Z,37.86
2023-02-18T12:21:53.444Z,36.88
2023-02-18T12:24:20.068Z,37.18
2023-02-18T12:26:46.731Z,37.81
2023-02-18T12:29:15.412Z,39.17
2023-02-18T12:31:42.105Z,38.04
2023-02-18T12:34:08.908Z,37.88
2023-02-18T12:36:35.587Z,38.61
2023-02-18T12:39:02.289Z,37.87
2023-02-18T12:41:29.025Z,37.63
2023-02-18T12:43:55.700Z,38.48
2023-02-18T12:46:22.340Z,37.57
2023-02-18T12:48:49.013Z,36.02
2023-02-18T12:51:15.684Z,35.59
2023-02-18T12:53:44.423Z,37.06
2023-02-18T12:56:11.305Z,37.58
2023-02-18T12:58:38.049Z,38.67
2023-02-18T13:01:04.772Z,37.03
2023-02-18T13:03:31.468Z,38.44
2023-02-18T13:05:58.168Z,37.44
2023-02-18T13:08:24.814Z,37.19
2023-02-18T13:10:51.456Z,37.51
2023-02-18T13:13:18.100Z,38.58
2023-02-18T13:15:44.750Z,38.95
2023-02-18T13:18:11.425Z,39.08
2023-02-18T13:20:38.095Z,37.59
2023-02-18T13:23:04.847Z,35.88
2023-02-18T13:25:31.507Z,36.11
2023-02-18T13:27:58.138Z,37.07
2023-02-18T13:30:25.002Z,38.66
2023-02-18T13:32:51.836Z,37.55
2023-02-18T13:35:18.513Z,37.87
2023-02-18T13:37:45.172Z,38.33
2023-02-18T13:40:11.859Z,38.50
2023-02-18T13:42:38.548Z,37.06
2023-02-18T13:45:05.146Z,37.50
2023-02-18T13:47:31.810Z,38.25
2023-02-18T13:49:58.479Z,36.60
2023-02-18T13:52:25.150Z,36.24
2023-02-18T13:54:52.185Z,37.08
2023-02-18T13:57:18.934Z,36.52
2023-02-18T13:59:45.606Z,35.69
2023-02-18T14:02:12.329Z,35.71
2023-02-18T14:04:39.523Z,34.07
2023-02-18T14:07:06.224Z,36.44
2023-02-18T14:09:32.846Z,36.01
2023-02-18T14:11:59.470Z,34.81
2023-02-18T14:14:26.143Z,35.53
2023-02-18T14:16:52.840Z,35.27
2023-02-18T14:19:19.477Z,34.88
2023-02-18T14:21:46.129Z,35.53
2023-02-18T14:24:12.762Z,35.29
2023-02-18T14:26:39.469Z,36.02
2023-02-18T14:29:06.182Z,35.63
2023-02-18T14:31:32.975Z,36.23
2023-02-18T14:33:59.641Z,35.49
2023-02-18T14:36:26.283Z,35.02
2023-02-18T14:38:52.975Z,35.13
2023-02-18T14:41:19.659Z,35.05
2023-02-18T14:43:46.306Z,34.64
2023-02-18T14:46:12.916Z,34.77
2023-02-18T14:48:39.560Z,35.17
2023-02-18T14:51:06.361Z,34.93
2023-02-18T14:53:33.069Z,35.71
2023-02-18T14:55:59.714Z,36.36
2023-02-18T14:58:26.393Z,36.39
2023-02-18T15:00:53.046Z,37.32
2023-02-18T15:03:19.725Z,38.57
2023-02-18T15:05:46.355Z,39.13
2023-02-18T15:08:13.046Z,38.70
2023-02-18T15:10:39.721Z,37.85
2023-02-18T15:13:06.355Z,38.63
2023-02-18T15:15:33.071Z,38.69
2023-02-18T15:17:59.715Z,38.85
2023-02-18T15:20:27.346Z,38.22
2023-02-18T15:22:54.109Z,38.36
2023-02-18T15:25:20.747Z,38.11
2023-02-18T15:27:47.431Z,38.41
2023-02-18T15:30:14.141Z,38.94
2023-02-18T15:32:40.765Z,38.33
2023-02-18T15:35:07.444Z,37.93
2023-02-18T15:37:34.113Z,37.96
2023-02-18T15:40:00.751Z,37.87
2023-02-18T15:42:27.476Z,37.90
2023-02-18T15:44:54.149Z,38.18
2023-02-18T15:47:20.850Z,38.19
2023-02-18T15:49:47.578Z,38.48
2023-02-18T15:52:14.188Z,39.17
2023-02-18T15:54:40.848Z,39.17
2023-02-18T15:57:07.490Z,39.15
2023-02-18T15:59:34.128Z,39.22
2023-02-18T16:02:00.853Z,39.49
2023-02-18T16:04:27.506Z,39.82
2023-02-18T16:06:54.148Z,39.87
2023-02-18T16:09:20.796Z,40.32
2023-02-18T16:11:47.485Z,40.63
2023-02-18T16:14:14.175Z,41.02
2023-02-18T16:16:40.941Z,41.31
2023-02-18T16:19:07.638Z,41.40
2023-02-18T16:21:34.230Z,41.94
2023-02-18T16:24:00.906Z,42.14
2023-02-18T16:26:27.590Z,42.53
2023-02-18T16:28:54.205Z,42.59
2023-02-18T16:31:20.984Z,43.23
2023-02-18T16:33:47.702Z,43.50
2023-02-18T16:36:14.337Z,43.73
2023-02-18T16:38:40.967Z,44.57
2023-02-18T16:41:07.658Z,44.39
2023-02-18T16:43:36.042Z,44.18
2023-02-18T16:46:02.729Z,44.67
2023-02-18T16:48:29.612Z,44.76
2023-02-18T16:50:57.215Z,44.74
2023-02-18T16:53:23.975Z,44.76
2023-02-18T16:55:50.641Z,45.03
2023-02-18T16:58:17.372Z,45.57
2023-02-18T17:00:44.057Z,45.94
2023-02-18T17:03:10.769Z,46.45
2023-02-18T17:05:37.492Z,46.52
2023-02-18T17:08:04.123Z,46.74
2023-02-18T17:10:30.756Z,47.06
2023-02-18T17:13:01.806Z,47.23
2023-02-18T17:15:28.416Z,47.93
2023-02-18T17:17:55.070Z,47.43
2023-02-18T17:20:21.693Z,48.03
2023-02-18T17:22:48.347Z,48.53
2023-02-18T17:25:15.020Z,48.59
2023-02-18T17:27:41.664Z,48.58
2023-02-18T17:30:08.301Z,48.34
2023-02-18T17:32:34.975Z,48.25
2023-02-18T17:35:01.644Z,48.03
2023-02-18T17:37:28.294Z,48.23
2023-02-18T17:39:55.009Z,49.86
2023-02-18T17:42:21.689Z,49.98
2023-02-18T17:44:48.320Z,50.21
2023-02-18T17:47:14.961Z,51.28
2023-02-18T17:49:41.625Z,51.23
2023-02-18T17:52:08.233Z,50.60
2023-02-18T17:54:34.860Z,50.05
2023-02-18T17:57:01.559Z,50.17
2023-02-18T17:59:28.202Z,51.43
2023-02-18T18:01:54.889Z,50.49
2023-02-18T18:04:21.644Z,50.55
2023-02-18T18:06:48.501Z,51.09
2023-02-18T18:09:15.104Z,51.60
2023-02-18T18:11:41.768Z,52.07
2023-02-18T18:14:08.463Z,52.19
2023-02-18T18:16:35.177Z,51.69
2023-02-18T18:19:01.894Z,52.09
2023-02-18T18:21:28.495Z,51.04
2023-02-18T18:23:55.144Z,52.34
2023-02-18T18:26:21.771Z,52.28
2023-02-18T18:28:48.443Z,51.93
2023-02-18T18:31:15.189Z,52.25
2023-02-18T18:33:41.907Z,52.66
2023-02-18T18:36:08.794Z,54.11
2023-02-18T18:38:35.694Z,53.08
2023-02-18T18:41:02.346Z,54.23
2023-02-18T18:43:31.501Z,52.49
2023-02-18T18:45:59.418Z,53.85
2023-02-18T18:48:26.038Z,53.42
2023-02-18T18:50:52.682Z,54.34
2023-02-18T18:53:19.356Z,55.16
2023-02-18T18:55:46.042Z,53.68
2023-02-18T18:58:12.657Z,53.30
2023-02-18T19:00:39.355Z,55.29
2023-02-18T19:03:05.996Z,53.79
2023-02-18T19:05:32.646Z,53.42
2023-02-18T19:07:59.296Z,54.57
2023-02-18T19:10:25.936Z,54.48
2023-02-18T19:12:52.576Z,54.63
2023-02-18T19:15:19.213Z,53.87
2023-02-18T19:17:45.848Z,55.89
2023-02-18T19:20:12.505Z,54.61
2023-02-18T19:22:39.173Z,53.90
2023-02-18T19:25:05.842Z,54.57
2023-02-18T19:27:32.480Z,56.49
2023-02-18T19:29:59.167Z,57.01
2023-02-18T19:32:25.822Z,56.57
2023-02-18T19:34:52.699Z,57.60
2023-02-18T19:37:19.308Z,58.25
2023-02-18T19:39:45.958Z,59.43
2023-02-18T19:42:12.611Z,59.09
2023-02-18T19:44:39.266Z,58.39
2023-02-18T19:47:05.950Z,60.40
2023-02-18T19:49:32.632Z,58.10
2023-02-18T19:51:59.274Z,58.48
2023-02-18T19:54:25.878Z,58.96
2023-02-18T19:56:52.523Z,58.50
2023-02-18T19:59:19.167Z,57.72
2023-02-18T20:01:45.903Z,57.22
2023-02-18T20:04:12.536Z,57.06
2023-02-18T20:06:39.152Z,56.44
2023-02-18T20:09:05.785Z,56.48
2023-02-18T20:11:32.448Z,55.95
2023-02-18T20:13:59.057Z,56.13
2023-02-18T20:16:25.709Z,55.10
2023-02-18T20:18:52.313Z,55.98
2023-02-18T20:21:18.985Z,55.99
2023-02-18T20:23:45.650Z,58.18
2023-02-18T20:26:12.299Z,59.11
2023-02-18T20:28:38.998Z,58.02
2023-02-18T20:31:05.724Z,58.99
2023-02-18T20:33:32.450Z,59.75
2023-02-18T20:36:00.913Z,59.05
2023-02-18T20:38:27.504Z,59.18
2023-02-18T20:40:54.169Z,58.60
2023-02-18T20:43:20.849Z,58.83
2023-02-18T20:45:47.560Z,59.90
2023-02-18T20:48:14.172Z,59.40
2023-02-18T20:50:40.828Z,58.34
2023-02-18T20:53:07.487Z,58.30
2023-02-18T20:55:34.179Z,59.22
2023-02-18T20:58:00.855Z,58.38
2023-02-18T21:00:27.500Z,60.23
2023-02-18T21:02:54.252Z,60.01
2023-02-18T21:05:20.918Z,58.75
2023-02-18T21:07:47.592Z,59.65
2023-02-18T21:10:14.252Z,60.51
2023-02-18T21:12:40.883Z,59.85
2023-02-18T21:15:07.544Z,60.12
2023-02-18T21:17:34.204Z,60.97
2023-02-18T21:20:00.896Z,59.88
2023-02-18T21:22:27.670Z,61.27
2023-02-18T21:24:54.289Z,60.83
2023-02-18T21:27:21.025Z,60.17
2023-02-18T21:29:47.644Z,59.90
2023-02-18T21:32:14.410Z,60.23
2023-02-18T21:34:41.090Z,59.28
2023-02-18T21:37:07.733Z,59.69
2023-02-18T21:39:34.414Z,58.42
2023-02-18T21:42:01.126Z,58.16
2023-02-18T21:44:41.195Z,58.93
2023-02-18T21:47:08.242Z,59.40
2023-02-18T21:49:34.913Z,59.35
2023-02-18T21:52:01.714Z,60.34
2023-02-18T21:54:28.358Z,60.37
2023-02-18T21:56:55.027Z,59.32
2023-02-18T21:59:21.697Z,60.04
2023-02-18T22:01:48.393Z,59.32
2023-02-18T22:04:15.008Z,59.24
2023-02-18T22:06:41.679Z,58.91
2023-02-18T22:09:08.354Z,59.10
2023-02-18T22:11:35.048Z,58.77
2023-02-18T22:14:01.736Z,59.04
2023-02-18T22:16:28.455Z,59.15
2023-02-18T22:18:55.074Z,59.17
2023-02-18T22:21:21.750Z,58.38
2023-02-18T22:23:48.376Z,58.07
2023-02-18T22:26:15.107Z,60.05
2023-02-18T22:28:41.714Z,59.90
2023-02-18T22:31:09.008Z,59.34
2023-02-18T22:33:35.973Z,60.53
2023-02-18T22:36:02.614Z,59.98
2023-02-18T22:38:29.368Z,59.47
2023-02-18T22:40:56.012Z,59.33
2023-02-18T22:43:22.633Z,59.16
2023-02-18T22:45:49.366Z,60.54
2023-02-18T22:48:17.374Z,59.86
2023-02-18T22:50:45.578Z,59.50
2023-02-18T22:53:12.201Z,59.09
2023-02-18T22:55:38.814Z,59.60
2023-02-18T22:58:05.441Z,59.79
2023-02-18T23:00:32.126Z,59.83
2023-02-18T23:02:58.736Z,60.28
2023-02-18T23:05:25.495Z,59.96
2023-02-18T23:07:52.151Z,59.97
2023-02-18T23:10:18.820Z,59.55
2023-02-18T23:12:45.456Z,59.21
2023-02-18T23:15:14.112Z,60.81
2023-02-18T23:17:40.840Z,60.41
2023-02-18T23:20:07.432Z,60.12
2023-02-18T23:22:34.139Z,59.38
2023-02-18T23:25:00.808Z,58.95
2023-02-18T23:27:27.462Z,59.06
2023-02-18T23:29:54.074Z,58.80
2023-02-18T23:32:20.681Z,58.76
2023-02-18T23:34:47.318Z,59.42
2023-02-18T23:37:13.924Z,59.58
2023-02-18T23:39:40.608Z,59.54
2023-02-18T23:42:07.271Z,59.95
2023-02-18T23:44:33.910Z,60.70
2023-02-18T23:47:00.570Z,61.26
2023-02-18T23:49:27.204Z,60.54
2023-02-18T23:51:53.886Z,60.22
2023-02-18T23:54:20.803Z,59.78
2023-02-18T23:56:47.506Z,60.47
2023-02-18T23:59:14.184Z,60.01
